Terminal Aerodrome Forecast
Issued by NWS

Current Version | Previous Version | Text Only | Print | Product List | Glossary On
Versions: 1 2 3 4 5 6 7 8 9 10 11 12 13 14 15 16 17 18 19 20 21 22 23 24 25 26 27 28
000
FTUS44 KOUN 211400 AAA
TAFHBR
TAF AMD
KHBR 211400Z 2114/2212 17016KT 5SM BR OVC008
      TEMPO 2114/2117 OVC005
     FM211700 18015G23KT P6SM OVC012
     FM212000 18013KT P6SM BKN015
     FM220300 17012KT 3SM BR OVC005=

USA.gov is the U.S. government's official web portal to all federal, state and local government web resources and services.